createdAt,value
2023-03-17T00:01:15.116Z,6.60
2023-03-17T00:04:00.503Z,6.64
2023-03-17T00:06:46.659Z,6.78
2023-03-17T00:09:32.052Z,6.99
2023-03-17T00:12:17.950Z,7.07
2023-03-17T00:15:03.388Z,7.21
2023-03-17T00:17:50.389Z,7.37
2023-03-17T00:20:35.984Z,7.58
2023-03-17T00:23:24.533Z,7.75
2023-03-17T00:26:10.584Z,7.95
2023-03-17T00:28:57.227Z,8.05
2023-03-17T00:31:45.272Z,8.15
2023-03-17T00:34:31.000Z,8.28
2023-03-17T00:37:16.413Z,8.41
2023-03-17T00:40:02.811Z,8.49
2023-03-17T00:42:50.381Z,8.42
2023-03-17T00:45:36.119Z,8.32
2023-03-17T00:48:22.174Z,8.35
2023-03-17T00:51:07.655Z,8.33
2023-03-17T00:53:52.882Z,8.27
2023-03-17T00:56:40.190Z,8.12
2023-03-17T00:59:35.504Z,7.97
2023-03-17T01:02:20.934Z,7.99
2023-03-17T01:05:07.272Z,8.14
2023-03-17T01:07:58.900Z,8.17
2023-03-17T01:10:44.505Z,8.23
2023-03-17T01:13:30.377Z,8.26
2023-03-17T01:16:16.068Z,8.24
2023-03-17T01:19:01.471Z,8.20
2023-03-17T01:21:48.132Z,8.30
2023-03-17T01:24:33.648Z,8.29
2023-03-17T01:27:19.518Z,8.26
2023-03-17T01:30:06.983Z,8.31
2023-03-17T01:32:52.393Z,8.39
2023-03-17T01:35:38.527Z,8.43
2023-03-17T01:38:24.719Z,8.47
2023-03-17T01:41:10.567Z,8.51
2023-03-17T01:43:56.229Z,8.50
2023-03-17T01:46:41.552Z,8.51
2023-03-17T01:49:33.211Z,8.52
2023-03-17T01:52:22.003Z,8.52
2023-03-17T01:55:16.197Z,8.52
2023-03-17T01:58:01.999Z,8.52
2023-03-17T02:00:47.482Z,8.56
2023-03-17T02:03:33.219Z,8.55
2023-03-17T02:06:18.536Z,8.56
2023-03-17T02:09:04.863Z,8.57
2023-03-17T02:11:50.902Z,8.58
2023-03-17T02:14:36.602Z,8.57
2023-03-17T02:17:24.531Z,8.52
2023-03-17T02:20:16.244Z,8.52
2023-03-17T02:23:02.593Z,8.52
2023-03-17T02:25:49.271Z,8.54
2023-03-17T02:28:35.480Z,8.54
2023-03-17T02:31:21.457Z,8.54
2023-03-17T02:34:07.054Z,8.55
2023-03-17T02:36:52.417Z,8.51
2023-03-17T02:39:37.646Z,8.47
2023-03-17T02:42:23.232Z,8.39
2023-03-17T02:45:11.689Z,8.35
2023-03-17T02:47:57.650Z,8.32
2023-03-17T02:50:42.934Z,8.29
2023-03-17T02:53:28.360Z,8.16
2023-03-17T02:56:13.652Z,7.98
2023-03-17T02:58:59.028Z,7.79
2023-03-17T03:01:44.814Z,7.63
2023-03-17T03:04:30.695Z,7.45
2023-03-17T03:07:16.284Z,7.32
2023-03-17T03:10:02.733Z,7.24
2023-03-17T03:12:48.488Z,7.10
2023-03-17T03:15:33.796Z,7.05
2023-03-17T03:18:19.202Z,6.95
2023-03-17T03:21:05.238Z,6.86
2023-03-17T03:23:51.172Z,6.77
2023-03-17T03:26:37.136Z,6.64
2023-03-17T03:29:22.551Z,6.55
2023-03-17T03:32:08.290Z,6.45
2023-03-17T03:34:54.353Z,6.36
2023-03-17T03:37:39.659Z,6.31
2023-03-17T03:40:25.573Z,6.30
2023-03-17T03:43:22.397Z,6.26
2023-03-17T03:46:09.219Z,6.24
2023-03-17T03:48:55.531Z,6.24
2023-03-17T03:51:40.740Z,6.29
2023-03-17T03:54:26.087Z,6.35
2023-03-17T03:57:11.446Z,6.49
2023-03-17T03:59:57.375Z,6.63
2023-03-17T04:02:45.201Z,6.71
2023-03-17T04:05:30.934Z,6.75
2023-03-17T04:08:16.711Z,6.82
2023-03-17T04:11:02.015Z,6.83
2023-03-17T04:13:47.254Z,6.82
2023-03-17T04:16:33.145Z,6.87
2023-03-17T04:19:18.615Z,6.88
2023-03-17T04:22:04.780Z,6.92
2023-03-17T04:24:51.022Z,6.97
2023-03-17T04:27:36.258Z,7.00
2023-03-17T04:30:21.675Z,7.07
2023-03-17T04:33:07.321Z,7.06
2023-03-17T04:35:52.944Z,7.03
2023-03-17T04:38:38.097Z,6.97
2023-03-17T04:41:23.711Z,6.98
2023-03-17T04:44:09.139Z,7.01
2023-03-17T04:46:54.809Z,7.06
2023-03-17T04:49:40.525Z,7.11
2023-03-17T04:52:26.314Z,7.17
2023-03-17T04:55:12.185Z,7.18
2023-03-17T04:57:57.770Z,7.15
2023-03-17T05:00:43.118Z,7.14
2023-03-17T05:03:30.201Z,7.17
2023-03-17T05:06:16.446Z,7.20
2023-03-17T05:09:02.019Z,7.27
2023-03-17T05:11:47.475Z,7.33
2023-03-17T05:14:32.681Z,7.36
2023-03-17T05:17:17.903Z,7.39
2023-03-17T05:20:04.424Z,7.46
2023-03-17T05:22:49.858Z,7.55
2023-03-17T05:25:35.781Z,7.62
2023-03-17T05:28:21.380Z,7.65
2023-03-17T05:31:09.539Z,7.69
2023-03-17T05:33:56.631Z,7.72
2023-03-17T05:36:41.856Z,7.78
2023-03-17T05:39:28.055Z,7.80
2023-03-17T05:42:13.264Z,7.82
2023-03-17T05:44:58.701Z,7.90
2023-03-17T05:47:45.802Z,7.94
2023-03-17T05:50:31.655Z,7.97
2023-03-17T05:53:17.610Z,7.99
2023-03-17T05:56:03.939Z,8.02
2023-03-17T05:58:49.350Z,8.00
2023-03-17T06:01:35.804Z,8.00
2023-03-17T06:04:22.006Z,7.95
2023-03-17T06:07:07.862Z,7.91
2023-03-17T06:09:53.195Z,7.82
2023-03-17T06:12:38.525Z,7.80
2023-03-17T06:15:23.962Z,7.77
2023-03-17T06:18:09.416Z,7.76
2023-03-17T06:20:55.426Z,7.78
2023-03-17T06:23:40.964Z,7.77
2023-03-17T06:26:27.332Z,7.74
2023-03-17T06:29:12.801Z,7.71
2023-03-17T06:32:09.232Z,7.74
2023-03-17T06:35:05.340Z,7.76
2023-03-17T06:37:51.951Z,7.77
2023-03-17T06:40:37.510Z,7.80
2023-03-17T06:43:25.002Z,7.90
2023-03-17T06:46:10.712Z,7.96
2023-03-17T06:48:56.140Z,8.00
2023-03-17T06:51:41.831Z,8.06
2023-03-17T06:54:27.220Z,8.11
2023-03-17T06:57:12.798Z,8.13
2023-03-17T06:59:58.514Z,8.15
2023-03-17T07:02:44.669Z,8.17
2023-03-17T07:05:30.588Z,8.18
2023-03-17T07:08:16.140Z,8.23
2023-03-17T07:11:04.154Z,8.25
2023-03-17T07:13:51.059Z,8.26
2023-03-17T07:16:37.685Z,8.27
2023-03-17T07:19:23.282Z,8.28
2023-03-17T07:22:11.927Z,8.27
2023-03-17T07:24:57.546Z,8.27
2023-03-17T07:27:42.824Z,8.32
2023-03-17T07:30:28.751Z,8.40
2023-03-17T07:33:15.427Z,8.52
2023-03-17T07:36:01.756Z,8.72
2023-03-17T07:38:47.322Z,8.89
2023-03-17T07:41:33.372Z,9.07
2023-03-17T07:44:19.796Z,9.23
2023-03-17T07:47:05.470Z,9.38
2023-03-17T07:49:51.129Z,9.55
2023-03-17T07:52:36.625Z,9.67
2023-03-17T07:55:22.337Z,9.86
2023-03-17T07:58:09.316Z,10.04
2023-03-17T08:00:56.801Z,10.20
2023-03-17T08:03:42.174Z,10.35
2023-03-17T08:06:27.249Z,10.45
2023-03-17T08:09:13.159Z,10.56
2023-03-17T08:11:58.800Z,10.66
2023-03-17T08:14:44.046Z,10.65
2023-03-17T08:17:29.480Z,10.66
2023-03-17T08:20:15.190Z,10.67
2023-03-17T08:23:01.570Z,10.73
2023-03-17T08:25:47.864Z,10.77
2023-03-17T08:28:33.185Z,10.80
2023-03-17T08:31:22.837Z,10.75
2023-03-17T08:34:08.689Z,10.78
2023-03-17T08:36:54.016Z,10.88
2023-03-17T08:39:39.667Z,10.99
2023-03-17T08:42:25.149Z,10.98
2023-03-17T08:45:11.328Z,10.98
2023-03-17T08:47:57.800Z,11.06
2023-03-17T08:50:43.137Z,11.06
2023-03-17T08:53:29.259Z,10.95
2023-03-17T08:56:15.058Z,10.85
2023-03-17T08:59:00.623Z,10.77
2023-03-17T09:01:47.209Z,10.74
2023-03-17T09:04:34.008Z,10.66
2023-03-17T09:07:19.537Z,10.60
2023-03-17T09:10:07.239Z,10.62
2023-03-17T09:12:53.526Z,10.64
2023-03-17T09:15:39.199Z,10.60
2023-03-17T09:18:24.639Z,10.62
2023-03-17T09:21:12.627Z,10.71
2023-03-17T09:24:00.454Z,10.73
2023-03-17T09:26:47.740Z,10.81
2023-03-17T09:29:34.139Z,10.76
2023-03-17T09:32:19.610Z,10.71
2023-03-17T09:35:05.896Z,10.67
2023-03-17T09:37:51.695Z,10.74
2023-03-17T09:40:44.291Z,10.85
2023-03-17T09:44:03.858Z,10.95
2023-03-17T09:46:57.948Z,11.01
2023-03-17T09:50:01.215Z,10.99
2023-03-17T09:52:47.607Z,10.92
2023-03-17T09:55:35.912Z,10.81
2023-03-17T09:58:30.067Z,10.77
2023-03-17T10:01:15.528Z,10.88
2023-03-17T10:04:02.763Z,10.99
2023-03-17T10:06:50.167Z,11.10
2023-03-17T10:09:40.939Z,11.20
2023-03-17T10:12:44.640Z,11.23
2023-03-17T10:15:42.244Z,11.25
2023-03-17T10:18:33.598Z,11.25
2023-03-17T10:21:27.253Z,11.25
2023-03-17T10:24:12.940Z,11.23
2023-03-17T10:27:03.892Z,11.26
2023-03-17T10:29:49.543Z,11.24
2023-03-17T10:32:37.851Z,11.25
2023-03-17T10:35:24.635Z,11.22
2023-03-17T10:38:23.804Z,11.21
2023-03-17T10:41:14.826Z,11.12
2023-03-17T10:44:00.951Z,11.04
2023-03-17T10:46:54.300Z,10.93
2023-03-17T10:49:39.832Z,10.78
2023-03-17T10:52:32.712Z,10.68
2023-03-17T10:55:26.610Z,10.49
2023-03-17T10:58:18.271Z,10.40
2023-03-17T11:01:17.491Z,10.33
2023-03-17T11:04:03.976Z,10.28
2023-03-17T11:06:51.566Z,10.24
2023-03-17T11:09:37.934Z,10.19
2023-03-17T11:12:26.502Z,10.19
2023-03-17T11:15:18.879Z,10.21
2023-03-17T11:18:16.660Z,10.25
2023-03-17T11:21:04.168Z,10.30
2023-03-17T11:24:00.121Z,10.32
2023-03-17T11:26:57.630Z,10.34
2023-03-17T11:29:43.150Z,10.38
2023-03-17T11:32:38.853Z,10.40
2023-03-17T11:35:42.121Z,10.46
2023-03-17T11:38:35.444Z,10.52
2023-03-17T11:42:02.723Z,10.57
2023-03-17T11:45:01.428Z,10.64
2023-03-17T11:48:02.755Z,10.62
2023-03-17T11:50:57.387Z,10.60
2023-03-17T11:53:46.091Z,10.62
2023-03-17T11:56:53.232Z,10.68
2023-03-17T11:59:52.311Z,10.67
2023-03-17T12:02:43.610Z,10.71
2023-03-17T12:05:32.997Z,10.74
2023-03-17T12:08:30.190Z,10.82
2023-03-17T12:11:22.283Z,10.92
2023-03-17T12:14:22.815Z,10.98
2023-03-17T12:17:26.506Z,11.01
2023-03-17T12:20:19.701Z,11.04
2023-03-17T12:23:34.417Z,11.08
2023-03-17T12:26:44.485Z,11.09
2023-03-17T12:29:50.078Z,11.11
2023-03-17T12:32:44.251Z,11.17
2023-03-17T12:35:36.504Z,11.22
2023-03-17T12:38:27.804Z,11.27
2023-03-17T12:41:31.630Z,11.34
2023-03-17T12:44:32.245Z,11.40
2023-03-17T12:47:52.199Z,11.47
2023-03-17T12:51:11.587Z,11.58
2023-03-17T12:53:59.228Z,11.59
2023-03-17T12:56:47.387Z,11.66
2023-03-17T12:59:34.176Z,11.71
2023-03-17T13:02:28.961Z,11.76
2023-03-17T13:05:17.125Z,11.87
2023-03-17T13:08:06.592Z,11.94
2023-03-17T13:11:12.922Z,12.06
2023-03-17T13:14:15.465Z,12.25
2023-03-17T13:17:17.724Z,12.44
2023-03-17T13:20:10.374Z,12.56
2023-03-17T13:23:01.846Z,12.61
2023-03-17T13:25:53.859Z,12.67
2023-03-17T13:28:40.886Z,12.57
2023-03-17T13:31:32.078Z,12.53
2023-03-17T13:34:20.303Z,12.59
2023-03-17T13:37:28.702Z,12.68
2023-03-17T13:40:19.326Z,12.78
2023-03-17T13:43:32.929Z,12.75
2023-03-17T13:46:21.304Z,12.63
2023-03-17T13:49:24.173Z,12.54
2023-03-17T13:52:22.054Z,12.42
2023-03-17T13:55:23.698Z,12.27
2023-03-17T13:58:11.365Z,12.21
2023-03-17T14:01:02.619Z,12.06
2023-03-17T14:03:50.728Z,12.04
2023-03-17T14:06:38.288Z,12.06
2023-03-17T14:09:28.129Z,12.06
2023-03-17T14:12:41.381Z,11.98
2023-03-17T14:15:37.884Z,11.90
2023-03-17T14:18:32.406Z,11.98
2023-03-17T14:21:29.462Z,12.18
2023-03-17T14:24:39.965Z,12.34
2023-03-17T14:27:27.088Z,12.31
2023-03-17T14:30:30.691Z,12.29
2023-03-17T14:33:24.603Z,12.30
2023-03-17T14:36:14.559Z,12.42
2023-03-17T14:38:59.931Z,12.49
2023-03-17T14:41:45.653Z,12.60
2023-03-17T14:44:42.007Z,12.56
2023-03-17T14:47:28.324Z,12.47
2023-03-17T14:50:30.111Z,12.42
2023-03-17T14:53:16.170Z,12.40
2023-03-17T14:56:03.283Z,12.31
2023-03-17T14:58:51.057Z,12.18
2023-03-17T15:01:44.610Z,12.09
2023-03-17T15:04:33.158Z,12.09
2023-03-17T15:07:40.499Z,12.14
2023-03-17T15:10:34.362Z,12.13
2023-03-17T15:13:20.007Z,12.12
2023-03-17T15:16:34.754Z,12.10
2023-03-17T15:19:48.556Z,12.14
2023-03-17T15:22:37.193Z,12.20
2023-03-17T15:25:31.898Z,12.14
2023-03-17T15:28:20.139Z,12.07
2023-03-17T15:31:13.813Z,11.95
2023-03-17T15:33:59.295Z,11.78
2023-03-17T15:36:47.621Z,11.65
2023-03-17T15:39:33.589Z,11.63
2023-03-17T15:42:20.755Z,11.60
2023-03-17T15:45:07.984Z,11.61
2023-03-17T15:47:53.545Z,11.72
2023-03-17T15:50:39.269Z,11.78
2023-03-17T15:53:24.616Z,11.86
2023-03-17T15:56:21.129Z,11.92
2023-03-17T15:59:07.049Z,12.03
2023-03-17T16:01:52.402Z,12.15
2023-03-17T16:04:37.691Z,12.23
2023-03-17T16:07:23.851Z,12.31
2023-03-17T16:10:20.088Z,12.44
2023-03-17T16:13:05.357Z,12.75
2023-03-17T16:15:55.986Z,12.84
2023-03-17T16:18:41.865Z,12.77
2023-03-17T16:21:29.519Z,12.65
2023-03-17T16:24:21.786Z,12.49
2023-03-17T16:27:14.856Z,12.40
2023-03-17T16:30:00.403Z,12.30
2023-03-17T16:32:46.120Z,12.22
2023-03-17T16:35:31.655Z,12.15
2023-03-17T16:38:20.951Z,12.09
2023-03-17T16:41:09.222Z,12.06
2023-03-17T16:44:00.744Z,12.01
2023-03-17T16:46:46.237Z,11.96
2023-03-17T16:49:31.739Z,11.96
2023-03-17T16:52:17.208Z,11.96
2023-03-17T16:55:02.611Z,11.93
2023-03-17T16:57:50.832Z,11.90
2023-03-17T17:00:36.145Z,11.87
2023-03-17T17:03:21.620Z,11.86
2023-03-17T17:06:07.605Z,11.83
2023-03-17T17:08:53.235Z,11.81
2023-03-17T17:11:38.816Z,11.68
2023-03-17T17:14:24.321Z,11.47
2023-03-17T17:17:10.722Z,11.28
2023-03-17T17:19:56.121Z,11.08
2023-03-17T17:22:41.548Z,10.93
2023-03-17T17:25:28.335Z,10.81
2023-03-17T17:28:18.488Z,10.69
2023-03-17T17:31:04.169Z,10.60
2023-03-17T17:33:49.370Z,10.53
2023-03-17T17:36:34.835Z,10.43
2023-03-17T17:39:20.250Z,10.40
2023-03-17T17:42:05.908Z,10.36
2023-03-17T17:44:51.686Z,10.33
2023-03-17T17:47:37.261Z,10.26
2023-03-17T17:50:28.432Z,10.22
2023-03-17T17:53:14.950Z,10.16
2023-03-17T17:56:00.237Z,10.09
2023-03-17T17:58:46.553Z,10.07
2023-03-17T18:01:32.117Z,10.11
2023-03-17T18:04:17.780Z,10.16
2023-03-17T18:07:03.702Z,10.21
2023-03-17T18:09:48.921Z,10.26
2023-03-17T18:12:34.531Z,10.29
2023-03-17T18:15:22.016Z,10.30
2023-03-17T18:18:07.806Z,10.28
2023-03-17T18:20:54.388Z,10.24
2023-03-17T18:23:46.919Z,10.24
2023-03-17T18:26:33.194Z,10.24
2023-03-17T18:29:18.729Z,10.21
2023-03-17T18:32:05.105Z,10.18
2023-03-17T18:34:50.642Z,10.16
2023-03-17T18:37:37.212Z,10.13
2023-03-17T18:40:22.549Z,10.13
2023-03-17T18:43:07.788Z,10.16
2023-03-17T18:45:53.091Z,10.16
2023-03-17T18:48:39.703Z,10.19
2023-03-17T18:51:25.705Z,10.21
2023-03-17T18:54:11.420Z,10.17
2023-03-17T18:56:57.092Z,10.06
2023-03-17T18:59:42.564Z,9.91
2023-03-17T19:02:28.106Z,9.82
2023-03-17T19:05:14.361Z,9.76
2023-03-17T19:07:59.913Z,9.73
2023-03-17T19:10:46.070Z,9.74
2023-03-17T19:13:31.896Z,9.73
2023-03-17T19:16:18.884Z,9.68
2023-03-17T19:19:04.592Z,9.60
2023-03-17T19:21:50.069Z,9.54
2023-03-17T19:24:37.211Z,9.50
2023-03-17T19:27:22.495Z,9.50
2023-03-17T19:30:09.793Z,9.46
2023-03-17T19:32:55.553Z,9.45
2023-03-17T19:35:41.934Z,9.42
2023-03-17T19:38:31.000Z,9.33
2023-03-17T19:41:17.949Z,9.22
2023-03-17T19:44:06.856Z,9.10
2023-03-17T19:46:52.199Z,8.99
2023-03-17T19:49:37.985Z,8.89
2023-03-17T19:52:23.705Z,8.79
2023-03-17T19:55:09.540Z,8.70
2023-03-17T19:57:56.202Z,8.61
2023-03-17T20:00:42.132Z,8.54
2023-03-17T20:03:28.542Z,8.47
2023-03-17T20:06:14.711Z,8.48
2023-03-17T20:09:01.129Z,8.54
2023-03-17T20:11:47.021Z,8.61
2023-03-17T20:14:32.610Z,8.65
2023-03-17T20:17:19.082Z,8.65
2023-03-17T20:20:06.255Z,8.63
2023-03-17T20:22:51.900Z,8.58
2023-03-17T20:25:37.321Z,8.56
2023-03-17T20:28:22.722Z,8.52
2023-03-17T20:31:09.530Z,8.47
2023-03-17T20:33:56.469Z,8.46
2023-03-17T20:36:43.106Z,8.45
2023-03-17T20:39:29.591Z,8.44
2023-03-17T20:42:14.957Z,8.40
2023-03-17T20:45:00.216Z,8.35
2023-03-17T20:47:46.032Z,8.33
2023-03-17T20:50:31.676Z,8.31
2023-03-17T20:53:17.861Z,8.37
2023-03-17T20:56:04.854Z,8.40
2023-03-17T20:58:53.292Z,8.43
2023-03-17T21:01:39.139Z,8.39
2023-03-17T21:04:24.541Z,8.34
2023-03-17T21:07:09.776Z,8.29
2023-03-17T21:09:59.612Z,8.27
2023-03-17T21:12:46.570Z,8.27
2023-03-17T21:15:31.840Z,8.29
2023-03-17T21:18:17.093Z,8.33
2023-03-17T21:21:02.392Z,8.30
2023-03-17T21:23:48.298Z,8.29
2023-03-17T21:26:34.665Z,8.27
2023-03-17T21:29:21.027Z,8.23
2023-03-17T21:32:08.560Z,8.22
2023-03-17T21:34:54.518Z,8.20
2023-03-17T21:37:40.033Z,8.18
2023-03-17T21:40:26.231Z,8.14
2023-03-17T21:43:11.918Z,8.12
2023-03-17T21:45:58.229Z,8.12
2023-03-17T21:48:44.201Z,8.16
2023-03-17T21:51:29.834Z,8.18
2023-03-17T21:54:15.450Z,8.19
2023-03-17T21:57:00.748Z,8.18
2023-03-17T21:59:46.607Z,8.20
2023-03-17T22:02:31.934Z,8.20
2023-03-17T22:05:17.573Z,8.24
2023-03-17T22:08:03.301Z,8.26
2023-03-17T22:10:49.045Z,8.28
2023-03-17T22:13:34.894Z,8.28
2023-03-17T22:16:20.648Z,8.29
2023-03-17T22:19:05.968Z,8.29
2023-03-17T22:21:51.897Z,8.25
2023-03-17T22:24:41.044Z,8.19
2023-03-17T22:27:27.540Z,8.10
2023-03-17T22:30:13.221Z,7.99
2023-03-17T22:32:58.836Z,7.90
2023-03-17T22:35:44.751Z,7.78
2023-03-17T22:38:30.153Z,7.68
2023-03-17T22:41:18.584Z,7.57
2023-03-17T22:44:04.430Z,7.53
2023-03-17T22:46:49.654Z,7.48
2023-03-17T22:49:35.110Z,7.44
2023-03-17T22:52:20.250Z,7.43
2023-03-17T22:55:06.678Z,7.46
2023-03-17T22:57:52.147Z,7.50
2023-03-17T23:00:37.708Z,7.53
2023-03-17T23:03:25.567Z,7.51
2023-03-17T23:06:11.840Z,7.56
2023-03-17T23:08:57.951Z,7.65
2023-03-17T23:11:43.449Z,7.76
2023-03-17T23:14:29.058Z,7.77
2023-03-17T23:17:14.902Z,7.74
2023-03-17T23:20:00.603Z,7.72
2023-03-17T23:22:47.182Z,7.74
2023-03-17T23:25:33.147Z,7.76
2023-03-17T23:28:19.381Z,7.76
2023-03-17T23:31:04.815Z,7.76
2023-03-17T23:33:51.437Z,7.79
2023-03-17T23:36:40.196Z,7.86
2023-03-17T23:39:25.926Z,7.93
2023-03-17T23:42:11.705Z,7.98
2023-03-17T23:44:57.473Z,8.02
2023-03-17T23:47:43.716Z,8.06
2023-03-17T23:50:29.592Z,8.09
2023-03-17T23:53:15.118Z,8.12
2023-03-17T23:56:00.737Z,8.14
2023-03-17T23:58:46.870Z,8.14
